sensor_id;sensor_type;location;lat;lon;timestamp;temperature;humidity
65396;HTU21D;52004;45.136;39.010;2023-09-12T00:01:28;14.79;52.48
65396;HTU21D;52004;45.136;39.010;2023-09-12T00:03:58;14.74;52.48
65396;HTU21D;52004;45.136;39.010;2023-09-12T00:06:24;14.69;52.51
65396;HTU21D;52004;45.136;39.010;2023-09-12T00:08:51;14.66;52.59
65396;HTU21D;52004;45.136;39.010;2023-09-12T00:11:17;14.60;52.63
65396;HTU21D;52004;45.136;39.010;2023-09-12T00:13:43;14.58;52.62
65396;HTU21D;52004;45.136;39.010;2023-09-12T00:16:09;14.51;52.70
65396;HTU21D;52004;45.136;39.010;2023-09-12T00:18:39;14.45;52.80
65396;HTU21D;52004;45.136;39.010;2023-09-12T00:21:05;14.41;52.85
65396;HTU21D;52004;45.136;39.010;2023-09-12T00:23:31;14.36;52.88
65396;HTU21D;52004;45.136;39.010;2023-09-12T00:25:57;14.33;52.97
65396;HTU21D;52004;45.136;39.010;2023-09-12T00:28:23;14.29;52.96
65396;HTU21D;52004;45.136;39.010;2023-09-12T00:30:49;14.25;52.96
65396;HTU21D;52004;45.136;39.010;2023-09-12T00:33:15;14.19;53.04
65396;HTU21D;52004;45.136;39.010;2023-09-12T00:35:41;14.14;53.09
65396;HTU21D;52004;45.136;39.010;2023-09-12T00:38:08;14.10;53.12
65396;HTU21D;52004;45.136;39.010;2023-09-12T00:40:34;14.06;53.22
65396;HTU21D;52004;45.136;39.010;2023-09-12T00:43:00;14.04;53.23
65396;HTU21D;52004;45.136;39.010;2023-09-12T00:45:26;14.01;53.24
65396;HTU21D;52004;45.136;39.010;2023-09-12T00:47:52;13.98;53.30
65396;HTU21D;52004;45.136;39.010;2023-09-12T00:50:22;13.96;53.30
65396;HTU21D;52004;45.136;39.010;2023-09-12T00:52:53;13.92;53.34
65396;HTU21D;52004;45.136;39.010;2023-09-12T00:55:20;13.89;53.36
65396;HTU21D;52004;45.136;39.010;2023-09-12T00:57:46;13.86;53.36
65396;HTU21D;52004;45.136;39.010;2023-09-12T01:00:12;13.82;53.37
65396;HTU21D;52004;45.136;39.010;2023-09-12T01:02:41;13.79;53.44
65396;HTU21D;52004;45.136;39.010;2023-09-12T01:05:08;13.76;53.47
65396;HTU21D;52004;45.136;39.010;2023-09-12T01:07:35;13.73;53.51
65396;HTU21D;52004;45.136;39.010;2023-09-12T01:10:02;13.69;53.52
65396;HTU21D;52004;45.136;39.010;2023-09-12T01:12:29;13.68;53.58
65396;HTU21D;52004;45.136;39.010;2023-09-12T01:14:55;13.66;53.60
65396;HTU21D;52004;45.136;39.010;2023-09-12T01:17:21;13.65;53.62
65396;HTU21D;52004;45.136;39.010;2023-09-12T01:19:47;13.63;53.64
65396;HTU21D;52004;45.136;39.010;2023-09-12T01:22:27;13.61;53.68
65396;HTU21D;52004;45.136;39.010;2023-09-12T01:29:58;13.58;53.69
65396;HTU21D;52004;45.136;39.010;2023-09-12T01:32:26;13.54;53.73
65396;HTU21D;52004;45.136;39.010;2023-09-12T01:34:52;13.52;53.75
65396;HTU21D;52004;45.136;39.010;2023-09-12T01:37:18;13.51;53.77
65396;HTU21D;52004;45.136;39.010;2023-09-12T01:39:44;13.49;53.78
65396;HTU21D;52004;45.136;39.010;2023-09-12T01:42:11;13.48;53.82
65396;HTU21D;52004;45.136;39.010;2023-09-12T01:44:37;13.45;53.83
65396;HTU21D;52004;45.136;39.010;2023-09-12T01:47:03;13.43;53.84
65396;HTU21D;52004;45.136;39.010;2023-09-12T01:49:30;13.39;53.81
65396;HTU21D;52004;45.136;39.010;2023-09-12T01:51:58;13.37;53.91
65396;HTU21D;52004;45.136;39.010;2023-09-12T01:54:25;13.34;53.94
65396;HTU21D;52004;45.136;39.010;2023-09-12T01:56:51;13.31;54.00
65396;HTU21D;52004;45.136;39.010;2023-09-12T01:59:17;13.29;54.03
65396;HTU21D;52004;45.136;39.010;2023-09-12T02:01:43;13.26;54.06
65396;HTU21D;52004;45.136;39.010;2023-09-12T02:04:09;13.23;54.09
65396;HTU21D;52004;45.136;39.010;2023-09-12T02:06:35;13.21;54.10
65396;HTU21D;52004;45.136;39.010;2023-09-12T02:09:01;13.17;54.10
65396;HTU21D;52004;45.136;39.010;2023-09-12T02:11:27;13.12;54.17
65396;HTU21D;52004;45.136;39.010;2023-09-12T02:13:53;13.09;54.20
65396;HTU21D;52004;45.136;39.010;2023-09-12T02:16:19;13.07;54.26
65396;HTU21D;52004;45.136;39.010;2023-09-12T02:18:45;13.05;54.30
65396;HTU21D;52004;45.136;39.010;2023-09-12T02:21:11;13.04;54.33
65396;HTU21D;52004;45.136;39.010;2023-09-12T02:23:37;13.01;54.34
65396;HTU21D;52004;45.136;39.010;2023-09-12T02:26:02;13.00;54.36
65396;HTU21D;52004;45.136;39.010;2023-09-12T02:28:28;12.96;54.39
65396;HTU21D;52004;45.136;39.010;2023-09-12T02:30:55;12.93;54.38
65396;HTU21D;52004;45.136;39.010;2023-09-12T02:33:21;12.91;54.40
65396;HTU21D;52004;45.136;39.010;2023-09-12T02:35:46;12.88;54.43
65396;HTU21D;52004;45.136;39.010;2023-09-12T02:38:13;12.85;54.46
65396;HTU21D;52004;45.136;39.010;2023-09-12T02:40:39;12.82;54.50
65396;HTU21D;52004;45.136;39.010;2023-09-12T02:43:05;12.80;54.52
65396;HTU21D;52004;45.136;39.010;2023-09-12T02:45:30;12.77;54.57
65396;HTU21D;52004;45.136;39.010;2023-09-12T02:47:56;12.75;54.59
65396;HTU21D;52004;45.136;39.010;2023-09-12T02:50:22;12.73;54.61
65396;HTU21D;52004;45.136;39.010;2023-09-12T02:52:48;12.71;54.55
65396;HTU21D;52004;45.136;39.010;2023-09-12T02:55:14;12.69;54.62
65396;HTU21D;52004;45.136;39.010;2023-09-12T02:57:40;12.66;54.70
65396;HTU21D;52004;45.136;39.010;2023-09-12T03:00:06;12.66;54.74
65396;HTU21D;52004;45.136;39.010;2023-09-12T03:02:33;12.65;54.75
65396;HTU21D;52004;45.136;39.010;2023-09-12T03:04:59;12.65;54.78
65396;HTU21D;52004;45.136;39.010;2023-09-12T03:07:27;12.64;54.80
65396;HTU21D;52004;45.136;39.010;2023-09-12T03:09:53;12.63;54.81
65396;HTU21D;52004;45.136;39.010;2023-09-12T03:12:19;12.63;54.84
65396;HTU21D;52004;45.136;39.010;2023-09-12T03:14:44;12.63;54.87
65396;HTU21D;52004;45.136;39.010;2023-09-12T03:17:10;12.63;54.90
65396;HTU21D;52004;45.136;39.010;2023-09-12T03:19:36;12.63;54.95
65396;HTU21D;52004;45.136;39.010;2023-09-12T03:22:03;12.65;54.94
65396;HTU21D;52004;45.136;39.010;2023-09-12T03:24:29;12.66;54.98
65396;HTU21D;52004;45.136;39.010;2023-09-12T03:26:55;12.69;55.00
65396;HTU21D;52004;45.136;39.010;2023-09-12T03:29:21;12.70;55.00
65396;HTU21D;52004;45.136;39.010;2023-09-12T03:31:47;12.73;55.01
65396;HTU21D;52004;45.136;39.010;2023-09-12T03:34:14;12.76;55.06
65396;HTU21D;52004;45.136;39.010;2023-09-12T03:36:40;12.77;55.07
65396;HTU21D;52004;45.136;39.010;2023-09-12T03:39:06;12.79;55.06
65396;HTU21D;52004;45.136;39.010;2023-09-12T03:41:34;12.82;55.08
65396;HTU21D;52004;45.136;39.010;2023-09-12T03:44:00;12.86;55.11
65396;HTU21D;52004;45.136;39.010;2023-09-12T03:46:26;12.90;55.13
65396;HTU21D;52004;45.136;39.010;2023-09-12T03:48:52;12.94;55.16
65396;HTU21D;52004;45.136;39.010;2023-09-12T03:51:18;13.00;55.17
65396;HTU21D;52004;45.136;39.010;2023-09-12T03:53:44;13.07;55.17
65396;HTU21D;52004;45.136;39.010;2023-09-12T03:56:13;13.11;55.22
65396;HTU21D;52004;45.136;39.010;2023-09-12T03:58:40;13.18;55.22
65396;HTU21D;52004;45.136;39.010;2023-09-12T04:01:06;0.00;55.23
65396;HTU21D;52004;45.136;39.010;2023-09-12T04:03:33;13.32;55.22
65396;HTU21D;52004;45.136;39.010;2023-09-12T04:05:59;13.38;55.23
65396;HTU21D;52004;45.136;39.010;2023-09-12T04:08:25;13.47;55.23
65396;HTU21D;52004;45.136;39.010;2023-09-12T04:10:50;13.54;55.23
65396;HTU21D;52004;45.136;39.010;2023-09-12T04:13:16;13.64;55.23
65396;HTU21D;52004;45.136;39.010;2023-09-12T04:15:42;13.73;55.25
65396;HTU21D;52004;45.136;39.010;2023-09-12T04:18:08;13.82;55.24
65396;HTU21D;52004;45.136;39.010;2023-09-12T04:20:34;13.93;55.24
65396;HTU21D;52004;45.136;39.010;2023-09-12T04:23:01;14.05;55.24
65396;HTU21D;52004;45.136;39.010;2023-09-12T04:25:28;14.17;55.23
65396;HTU21D;52004;45.136;39.010;2023-09-12T04:27:55;14.29;55.24
65396;HTU21D;52004;45.136;39.010;2023-09-12T04:30:20;14.41;55.22
65396;HTU21D;52004;45.136;39.010;2023-09-12T04:32:46;14.53;55.14
65396;HTU21D;52004;45.136;39.010;2023-09-12T04:35:12;14.66;55.13
65396;HTU21D;52004;45.136;39.010;2023-09-12T04:37:38;14.78;55.14
65396;HTU21D;52004;45.136;39.010;2023-09-12T04:40:04;14.91;55.15
65396;HTU21D;52004;45.136;39.010;2023-09-12T04:42:32;15.02;55.11
65396;HTU21D;52004;45.136;39.010;2023-09-12T04:44:58;15.14;55.13
65396;HTU21D;52004;45.136;39.010;2023-09-12T04:47:24;15.27;55.10
65396;HTU21D;52004;45.136;39.010;2023-09-12T04:49:50;15.40;55.07
65396;HTU21D;52004;45.136;39.010;2023-09-12T04:52:17;15.52;55.00
65396;HTU21D;52004;45.136;39.010;2023-09-12T04:54:43;15.63;54.94
65396;HTU21D;52004;45.136;39.010;2023-09-12T04:57:10;15.76;54.89
65396;HTU21D;52004;45.136;39.010;2023-09-12T04:59:36;15.86;54.86
65396;HTU21D;52004;45.136;39.010;2023-09-12T05:02:02;15.98;54.84
65396;HTU21D;52004;45.136;39.010;2023-09-12T05:04:28;16.11;54.86
65396;HTU21D;52004;45.136;39.010;2023-09-12T05:06:55;16.22;54.87
65396;HTU21D;52004;45.136;39.010;2023-09-12T05:09:21;16.35;54.85
65396;HTU21D;52004;45.136;39.010;2023-09-12T05:11:47;16.46;54.84
65396;HTU21D;52004;45.136;39.010;2023-09-12T05:14:13;0.00;54.84
65396;HTU21D;52004;45.136;39.010;2023-09-12T05:16:38;16.71;54.84
65396;HTU21D;52004;45.136;39.010;2023-09-12T05:19:04;16.84;54.86
65396;HTU21D;52004;45.136;39.010;2023-09-12T05:21:30;16.99;54.88
65396;HTU21D;52004;45.136;39.010;2023-09-12T05:23:56;17.11;54.84
65396;HTU21D;52004;45.136;39.010;2023-09-12T05:26:22;17.25;54.84
65396;HTU21D;52004;45.136;39.010;2023-09-12T05:28:48;17.41;54.84
65396;HTU21D;52004;45.136;39.010;2023-09-12T05:31:14;17.54;54.78
65396;HTU21D;52004;45.136;39.010;2023-09-12T05:33:40;17.68;54.79
65396;HTU21D;52004;45.136;39.010;2023-09-12T05:36:06;17.81;54.78
65396;HTU21D;52004;45.136;39.010;2023-09-12T05:38:32;17.97;54.74
65396;HTU21D;52004;45.136;39.010;2023-09-12T05:40:57;18.10;54.70
65396;HTU21D;52004;45.136;39.010;2023-09-12T05:43:24;18.23;54.56
65396;HTU21D;52004;45.136;39.010;2023-09-12T05:45:49;18.35;54.46
65396;HTU21D;52004;45.136;39.010;2023-09-12T05:48:15;18.43;54.40
65396;HTU21D;52004;45.136;39.010;2023-09-12T05:50:41;18.53;54.39
65396;HTU21D;52004;45.136;39.010;2023-09-12T05:53:07;0.00;54.38
65396;HTU21D;52004;45.136;39.010;2023-09-12T05:55:34;18.77;54.41
65396;HTU21D;52004;45.136;39.010;2023-09-12T05:58:00;18.89;54.33
65396;HTU21D;52004;45.136;39.010;2023-09-12T06:00:26;19.02;54.29
65396;HTU21D;52004;45.136;39.010;2023-09-12T06:02:52;19.15;54.27
65396;HTU21D;52004;45.136;39.010;2023-09-12T06:05:18;19.26;54.25
65396;HTU21D;52004;45.136;39.010;2023-09-12T06:07:43;19.41;54.13
65396;HTU21D;52004;45.136;39.010;2023-09-12T06:10:10;19.53;54.09
65396;HTU21D;52004;45.136;39.010;2023-09-12T06:12:35;19.68;54.06
65396;HTU21D;52004;45.136;39.010;2023-09-12T06:15:02;19.79;53.92
65396;HTU21D;52004;45.136;39.010;2023-09-12T06:17:31;19.91;53.88
65396;HTU21D;52004;45.136;39.010;2023-09-12T06:19:57;20.01;53.83
65396;HTU21D;52004;45.136;39.010;2023-09-12T06:22:23;20.14;53.76
65396;HTU21D;52004;45.136;39.010;2023-09-12T06:24:49;20.24;53.71
65396;HTU21D;52004;45.136;39.010;2023-09-12T06:27:16;20.35;53.66
65396;HTU21D;52004;45.136;39.010;2023-09-12T06:29:44;20.46;53.52
65396;HTU21D;52004;45.136;39.010;2023-09-12T06:32:11;20.57;53.58
65396;HTU21D;52004;45.136;39.010;2023-09-12T06:34:36;20.70;53.58
65396;HTU21D;52004;45.136;39.010;2023-09-12T06:37:02;20.84;53.39
65396;HTU21D;52004;45.136;39.010;2023-09-12T06:39:28;20.92;53.33
65396;HTU21D;52004;45.136;39.010;2023-09-12T06:41:54;21.03;53.36
65396;HTU21D;52004;45.136;39.010;2023-09-12T06:44:20;21.16;53.30
65396;HTU21D;52004;45.136;39.010;2023-09-12T06:46:46;21.29;53.22
65396;HTU21D;52004;45.136;39.010;2023-09-12T06:49:12;21.40;53.07
65396;HTU21D;52004;45.136;39.010;2023-09-12T06:51:37;21.51;52.95
65396;HTU21D;52004;45.136;39.010;2023-09-12T06:54:03;21.63;52.94
65396;HTU21D;52004;45.136;39.010;2023-09-12T06:56:29;21.73;52.83
65396;HTU21D;52004;45.136;39.010;2023-09-12T06:58:55;21.83;52.88
65396;HTU21D;52004;45.136;39.010;2023-09-12T07:01:21;21.96;52.82
65396;HTU21D;52004;45.136;39.010;2023-09-12T07:03:47;22.09;52.79
65396;HTU21D;52004;45.136;39.010;2023-09-12T07:06:13;22.24;52.72
65396;HTU21D;52004;45.136;39.010;2023-09-12T07:08:39;22.35;52.62
65396;HTU21D;52004;45.136;39.010;2023-09-12T07:11:06;22.46;52.55
65396;HTU21D;52004;45.136;39.010;2023-09-12T07:13:32;22.57;52.40
65396;HTU21D;52004;45.136;39.010;2023-09-12T07:16:00;22.67;52.39
65396;HTU21D;52004;45.136;39.010;2023-09-12T07:18:29;22.79;52.39
65396;HTU21D;52004;45.136;39.010;2023-09-12T07:20:58;22.92;52.27
65396;HTU21D;52004;45.136;39.010;2023-09-12T07:23:24;23.03;52.27
65396;HTU21D;52004;45.136;39.010;2023-09-12T07:25:50;23.16;52.20
65396;HTU21D;52004;45.136;39.010;2023-09-12T07:28:16;23.28;52.11
65396;HTU21D;52004;45.136;39.010;2023-09-12T07:30:45;23.38;51.93
65396;HTU21D;52004;45.136;39.010;2023-09-12T07:33:11;23.46;51.93
65396;HTU21D;52004;45.136;39.010;2023-09-12T07:35:37;23.57;51.89
65396;HTU21D;52004;45.136;39.010;2023-09-12T07:38:03;23.69;51.74
65396;HTU21D;52004;45.136;39.010;2023-09-12T07:40:29;23.77;51.55
65396;HTU21D;52004;45.136;39.010;2023-09-12T07:42:55;23.85;51.50
65396;HTU21D;52004;45.136;39.010;2023-09-12T07:45:20;23.92;51.44
65396;HTU21D;52004;45.136;39.010;2023-09-12T07:47:46;24.02;51.43
65396;HTU21D;52004;45.136;39.010;2023-09-12T07:50:12;24.12;51.39
65396;HTU21D;52004;45.136;39.010;2023-09-12T07:52:38;24.21;51.30
65396;HTU21D;52004;45.136;39.010;2023-09-12T07:55:04;24.31;51.19
65396;HTU21D;52004;45.136;39.010;2023-09-12T07:57:30;24.42;51.15
65396;HTU21D;52004;45.136;39.010;2023-09-12T07:59:56;24.53;51.07
65396;HTU21D;52004;45.136;39.010;2023-09-12T08:02:22;24.62;50.98
65396;HTU21D;52004;45.136;39.010;2023-09-12T08:04:49;24.72;50.91
65396;HTU21D;52004;45.136;39.010;2023-09-12T08:07:16;24.83;50.89
65396;HTU21D;52004;45.136;39.010;2023-09-12T08:12:14;25.02;50.82
65396;HTU21D;52004;45.136;39.010;2023-09-12T08:14:40;25.14;50.72
65396;HTU21D;52004;45.136;39.010;2023-09-12T08:17:06;25.24;50.60
65396;HTU21D;52004;45.136;39.010;2023-09-12T08:19:32;25.35;50.49
65396;HTU21D;52004;45.136;39.010;2023-09-12T08:21:58;25.42;50.46
65396;HTU21D;52004;45.136;39.010;2023-09-12T08:24:23;25.52;50.40
65396;HTU21D;52004;45.136;39.010;2023-09-12T08:26:49;25.60;50.30
65396;HTU21D;52004;45.136;39.010;2023-09-12T08:29:15;25.66;50.18
65396;HTU21D;52004;45.136;39.010;2023-09-12T08:31:41;25.73;50.05
65396;HTU21D;52004;45.136;39.010;2023-09-12T08:34:07;25.79;50.01
65396;HTU21D;52004;45.136;39.010;2023-09-12T08:36:33;25.88;49.93
65396;HTU21D;52004;45.136;39.010;2023-09-12T08:39:01;25.96;49.84
65396;HTU21D;52004;45.136;39.010;2023-09-12T08:41:27;26.06;49.78
65396;HTU21D;52004;45.136;39.010;2023-09-12T08:43:53;26.17;49.69
65396;HTU21D;52004;45.136;39.010;2023-09-12T08:46:20;26.24;49.63
65396;HTU21D;52004;45.136;39.010;2023-09-12T08:48:46;26.34;49.52
65396;HTU21D;52004;45.136;39.010;2023-09-12T08:51:12;26.41;49.35
65396;HTU21D;52004;45.136;39.010;2023-09-12T08:53:38;26.47;49.25
65396;HTU21D;52004;45.136;39.010;2023-09-12T08:56:04;26.53;49.24
65396;HTU21D;52004;45.136;39.010;2023-09-12T08:58:32;26.62;49.08
65396;HTU21D;52004;45.136;39.010;2023-09-12T09:01:00;26.68;48.99
65396;HTU21D;52004;45.136;39.010;2023-09-12T09:03:26;26.75;48.92
65396;HTU21D;52004;45.136;39.010;2023-09-12T09:05:52;26.78;48.79
65396;HTU21D;52004;45.136;39.010;2023-09-12T09:08:20;26.80;48.75
65396;HTU21D;52004;45.136;39.010;2023-09-12T09:10:59;26.84;48.78
65396;HTU21D;52004;45.136;39.010;2023-09-12T09:13:29;26.95;48.69
65396;HTU21D;52004;45.136;39.010;2023-09-12T09:16:11;27.05;48.64
65396;HTU21D;52004;45.136;39.010;2023-09-12T09:18:51;27.17;48.57
65396;HTU21D;52004;45.136;39.010;2023-09-12T09:21:17;27.30;48.42
65396;HTU21D;52004;45.136;39.010;2023-09-12T09:23:45;27.38;48.37
65396;HTU21D;52004;45.136;39.010;2023-09-12T09:26:12;27.43;48.28
65396;HTU21D;52004;45.136;39.010;2023-09-12T09:28:38;27.43;48.19
65396;HTU21D;52004;45.136;39.010;2023-09-12T09:31:05;27.45;48.24
65396;HTU21D;52004;45.136;39.010;2023-09-12T09:33:36;27.50;48.17
65396;HTU21D;52004;45.136;39.010;2023-09-12T09:36:03;27.52;47.98
65396;HTU21D;52004;45.136;39.010;2023-09-12T09:38:29;27.51;47.86
65396;HTU21D;52004;45.136;39.010;2023-09-12T09:40:55;27.36;47.54
65396;HTU21D;52004;45.136;39.010;2023-09-12T09:43:21;27.13;47.48
65396;HTU21D;52004;45.136;39.010;2023-09-12T09:45:47;26.91;47.57
65396;HTU21D;52004;45.136;39.010;2023-09-12T09:48:17;26.81;47.77
65396;HTU21D;52004;45.136;39.010;2023-09-12T09:50:43;26.82;47.79
65396;HTU21D;52004;45.136;39.010;2023-09-12T09:53:09;26.91;47.79
65396;HTU21D;52004;45.136;39.010;2023-09-12T09:55:36;27.02;47.77
65396;HTU21D;52004;45.136;39.010;2023-09-12T09:58:02;27.19;47.83
65396;HTU21D;52004;45.136;39.010;2023-09-12T10:00:29;27.38;47.71
65396;HTU21D;52004;45.136;39.010;2023-09-12T10:02:55;27.56;47.60
65396;HTU21D;52004;45.136;39.010;2023-09-12T10:05:21;27.69;47.44
65396;HTU21D;52004;45.136;39.010;2023-09-12T10:07:49;27.80;47.25
65396;HTU21D;52004;45.136;39.010;2023-09-12T10:10:19;27.82;47.02
65396;HTU21D;52004;45.136;39.010;2023-09-12T10:12:48;27.73;46.80
65396;HTU21D;52004;45.136;39.010;2023-09-12T10:15:15;27.57;46.79
65396;HTU21D;52004;45.136;39.010;2023-09-12T10:17:43;27.52;47.03
65396;HTU21D;52004;45.136;39.010;2023-09-12T10:20:16;27.60;47.04
65396;HTU21D;52004;45.136;39.010;2023-09-12T10:22:51;27.72;47.00
65396;HTU21D;52004;45.136;39.010;2023-09-12T10:25:17;27.87;46.89
65396;HTU21D;52004;45.136;39.010;2023-09-12T10:27:43;28.02;46.83
65396;HTU21D;52004;45.136;39.010;2023-09-12T10:30:09;28.15;46.74
65396;HTU21D;52004;45.136;39.010;2023-09-12T10:32:36;28.27;46.71
65396;HTU21D;52004;45.136;39.010;2023-09-12T10:35:02;28.44;46.64
65396;HTU21D;52004;45.136;39.010;2023-09-12T10:37:29;28.56;46.45
65396;HTU21D;52004;45.136;39.010;2023-09-12T10:39:55;28.64;46.38
65396;HTU21D;52004;45.136;39.010;2023-09-12T10:42:23;28.74;46.28
65396;HTU21D;52004;45.136;39.010;2023-09-12T10:44:49;28.84;46.30
65396;HTU21D;52004;45.136;39.010;2023-09-12T10:47:15;28.93;46.12
65396;HTU21D;52004;45.136;39.010;2023-09-12T10:49:44;28.99;46.02
65396;HTU21D;52004;45.136;39.010;2023-09-12T10:52:10;29.02;45.80
65396;HTU21D;52004;45.136;39.010;2023-09-12T10:54:37;28.91;45.67
65396;HTU21D;52004;45.136;39.010;2023-09-12T10:57:07;28.75;45.62
65396;HTU21D;52004;45.136;39.010;2023-09-12T10:59:34;28.54;45.57
65396;HTU21D;52004;45.136;39.010;2023-09-12T11:04:47;28.03;45.46
65396;HTU21D;52004;45.136;39.010;2023-09-12T11:12:41;28.02;45.93
65396;HTU21D;52004;45.136;39.010;2023-09-12T11:15:07;28.19;45.90
65396;HTU21D;52004;45.136;39.010;2023-09-12T11:17:37;28.37;45.83
65396;HTU21D;52004;45.136;39.010;2023-09-12T11:20:03;28.47;45.61
65396;HTU21D;52004;45.136;39.010;2023-09-12T11:22:42;28.59;45.57
65396;HTU21D;52004;45.136;39.010;2023-09-12T11:25:18;28.72;45.46
65396;HTU21D;52004;45.136;39.010;2023-09-12T11:30:20;28.93;45.31
65396;HTU21D;52004;45.136;39.010;2023-09-12T11:32:47;29.02;45.25
65396;HTU21D;52004;45.136;39.010;2023-09-12T11:35:14;29.13;45.11
65396;HTU21D;52004;45.136;39.010;2023-09-12T11:37:48;29.20;45.08
65396;HTU21D;52004;45.136;39.010;2023-09-12T11:42:40;29.28;44.77
65396;HTU21D;52004;45.136;39.010;2023-09-12T11:45:09;29.28;44.77
65396;HTU21D;52004;45.136;39.010;2023-09-12T11:47:42;29.29;44.71
65396;HTU21D;52004;45.136;39.010;2023-09-12T11:50:09;29.31;44.65
65396;HTU21D;52004;45.136;39.010;2023-09-12T11:52:37;29.34;44.69
65396;HTU21D;52004;45.136;39.010;2023-09-12T11:55:04;29.39;44.62
65396;HTU21D;52004;45.136;39.010;2023-09-12T11:57:30;29.44;44.62
65396;HTU21D;52004;45.136;39.010;2023-09-12T11:59:57;29.45;44.43
65396;HTU21D;52004;45.136;39.010;2023-09-12T12:02:23;29.38;44.34
65396;HTU21D;52004;45.136;39.010;2023-09-12T12:04:49;29.27;44.17
65396;HTU21D;52004;45.136;39.010;2023-09-12T12:07:16;29.06;44.15
65396;HTU21D;52004;45.136;39.010;2023-09-12T12:09:42;28.87;44.13
65396;HTU21D;52004;45.136;39.010;2023-09-12T12:12:14;28.67;43.96
65396;HTU21D;52004;45.136;39.010;2023-09-12T12:14:40;28.50;44.29
65396;HTU21D;52004;45.136;39.010;2023-09-12T12:17:10;28.48;44.45
65396;HTU21D;52004;45.136;39.010;2023-09-12T12:19:36;28.56;44.48
65396;HTU21D;52004;45.136;39.010;2023-09-12T12:22:03;28.69;44.47
65396;HTU21D;52004;45.136;39.010;2023-09-12T12:24:38;28.75;44.31
65396;HTU21D;52004;45.136;39.010;2023-09-12T12:27:04;28.80;44.24
65396;HTU21D;52004;45.136;39.010;2023-09-12T12:29:30;28.87;44.16
65396;HTU21D;52004;45.136;39.010;2023-09-12T12:31:59;28.89;44.09
65396;HTU21D;52004;45.136;39.010;2023-09-12T12:34:26;28.91;43.97
65396;HTU21D;52004;45.136;39.010;2023-09-12T12:36:53;28.91;43.94
65396;HTU21D;52004;45.136;39.010;2023-09-12T12:39:20;28.92;43.95
65396;HTU21D;52004;45.136;39.010;2023-09-12T12:41:46;28.94;43.85
65396;HTU21D;52004;45.136;39.010;2023-09-12T12:44:12;28.95;43.79
65396;HTU21D;52004;45.136;39.010;2023-09-12T12:46:48;28.95;43.74
65396;HTU21D;52004;45.136;39.010;2023-09-12T12:49:15;28.97;43.71
65396;HTU21D;52004;45.136;39.010;2023-09-12T12:51:41;28.94;43.56
65396;HTU21D;52004;45.136;39.010;2023-09-12T12:54:07;28.88;43.58
65396;HTU21D;52004;45.136;39.010;2023-09-12T12:56:33;28.87;43.53
65396;HTU21D;52004;45.136;39.010;2023-09-12T12:59:00;28.85;43.54
65396;HTU21D;52004;45.136;39.010;2023-09-12T13:01:29;28.84;43.51
65396;HTU21D;52004;45.136;39.010;2023-09-12T13:03:55;28.76;43.32
65396;HTU21D;52004;45.136;39.010;2023-09-12T13:06:24;28.60;43.10
65396;HTU21D;52004;45.136;39.010;2023-09-12T13:08:51;28.40;42.96
65396;HTU21D;52004;45.136;39.010;2023-09-12T13:11:17;28.17;43.11
65396;HTU21D;52004;45.136;39.010;2023-09-12T13:13:43;27.99;43.18
65396;HTU21D;52004;45.136;39.010;2023-09-12T13:16:10;27.80;43.19
65396;HTU21D;52004;45.136;39.010;2023-09-12T13:18:36;27.63;43.32
65396;HTU21D;52004;45.136;39.010;2023-09-12T13:21:02;27.50;43.38
65396;HTU21D;52004;45.136;39.010;2023-09-12T13:23:29;27.38;43.42
65396;HTU21D;52004;45.136;39.010;2023-09-12T13:25:55;27.25;43.48
65396;HTU21D;52004;45.136;39.010;2023-09-12T13:28:21;27.23;43.58
65396;HTU21D;52004;45.136;39.010;2023-09-12T13:30:51;27.28;43.51
65396;HTU21D;52004;45.136;39.010;2023-09-12T13:33:17;27.35;43.50
65396;HTU21D;52004;45.136;39.010;2023-09-12T13:35:43;27.39;43.45
65396;HTU21D;52004;45.136;39.010;2023-09-12T13:38:09;27.43;43.35
65396;HTU21D;52004;45.136;39.010;2023-09-12T13:40:38;27.46;43.32
65396;HTU21D;52004;45.136;39.010;2023-09-12T13:43:04;27.51;43.29
65396;HTU21D;52004;45.136;39.010;2023-09-12T13:45:30;27.50;43.21
65396;HTU21D;52004;45.136;39.010;2023-09-12T13:47:57;27.44;43.10
65396;HTU21D;52004;45.136;39.010;2023-09-12T13:50:23;27.35;43.11
65396;HTU21D;52004;45.136;39.010;2023-09-12T13:52:49;27.24;43.16
65396;HTU21D;52004;45.136;39.010;2023-09-12T13:55:15;27.12;43.15
65396;HTU21D;52004;45.136;39.010;2023-09-12T13:57:42;27.00;43.19
65396;HTU21D;52004;45.136;39.010;2023-09-12T14:00:08;26.86;43.29
65396;HTU21D;52004;45.136;39.010;2023-09-12T14:02:34;26.76;43.34
65396;HTU21D;52004;45.136;39.010;2023-09-12T14:05:00;0.00;43.37
65396;HTU21D;52004;45.136;39.010;2023-09-12T14:07:27;26.51;43.44
65396;HTU21D;52004;45.136;39.010;2023-09-12T14:09:53;26.45;43.45
65396;HTU21D;52004;45.136;39.010;2023-09-12T14:12:24;26.35;43.48
65396;HTU21D;52004;45.136;39.010;2023-09-12T14:14:51;26.27;43.48
65396;HTU21D;52004;45.136;39.010;2023-09-12T14:17:17;26.16;43.50
65396;HTU21D;52004;45.136;39.010;2023-09-12T14:19:43;26.06;43.54
65396;HTU21D;52004;45.136;39.010;2023-09-12T14:22:09;25.95;43.57
65396;HTU21D;52004;45.136;39.010;2023-09-12T14:24:35;25.86;43.62
65396;HTU21D;52004;45.136;39.010;2023-09-12T14:27:01;25.78;43.65
65396;HTU21D;52004;45.136;39.010;2023-09-12T14:29:27;25.73;43.70
65396;HTU21D;52004;45.136;39.010;2023-09-12T14:31:55;25.65;43.74
65396;HTU21D;52004;45.136;39.010;2023-09-12T14:34:25;25.58;43.79
65396;HTU21D;52004;45.136;39.010;2023-09-12T14:36:54;25.54;43.84
65396;HTU21D;52004;45.136;39.010;2023-09-12T14:39:21;25.48;43.86
65396;HTU21D;52004;45.136;39.010;2023-09-12T14:41:47;25.43;43.88
65396;HTU21D;52004;45.136;39.010;2023-09-12T14:44:17;25.35;43.89
65396;HTU21D;52004;45.136;39.010;2023-09-12T14:46:44;25.29;43.88
65396;HTU21D;52004;45.136;39.010;2023-09-12T14:49:10;25.22;43.92
65396;HTU21D;52004;45.136;39.010;2023-09-12T14:51:36;25.15;43.94
65396;HTU21D;52004;45.136;39.010;2023-09-12T14:54:02;25.07;43.94
65396;HTU21D;52004;45.136;39.010;2023-09-12T14:56:28;24.99;43.96
65396;HTU21D;52004;45.136;39.010;2023-09-12T14:58:54;24.91;43.99
65396;HTU21D;52004;45.136;39.010;2023-09-12T15:01:20;24.84;44.00
65396;HTU21D;52004;45.136;39.010;2023-09-12T15:03:46;24.77;44.02
65396;HTU21D;52004;45.136;39.010;2023-09-12T15:06:12;24.70;44.06
65396;HTU21D;52004;45.136;39.010;2023-09-12T15:08:38;24.63;44.07
65396;HTU21D;52004;45.136;39.010;2023-09-12T15:11:04;24.57;44.09
65396;HTU21D;52004;45.136;39.010;2023-09-12T15:13:31;24.48;44.13
65396;HTU21D;52004;45.136;39.010;2023-09-12T15:15:57;24.40;44.16
65396;HTU21D;52004;45.136;39.010;2023-09-12T15:18:22;24.33;44.21
65396;HTU21D;52004;45.136;39.010;2023-09-12T15:20:49;0.00;44.25